createdAt,value
2023-04-15T00:01:37.312Z,4.47
2023-04-15T00:04:40.153Z,4.30
2023-04-15T00:07:42.700Z,4.43
2023-04-15T00:10:46.707Z,4.50
2023-04-15T00:13:49.440Z,4.95
2023-04-15T00:16:56.274Z,6.05
2023-04-15T00:20:00.011Z,6.47
2023-04-15T00:23:04.199Z,6.20
2023-04-15T00:26:07.562Z,5.80
2023-04-15T00:29:10.390Z,6.18
2023-04-15T00:32:13.445Z,5.68
2023-04-15T00:35:16.606Z,5.30
2023-04-15T00:38:18.999Z,5.65
2023-04-15T00:41:23.084Z,5.28
2023-04-15T00:44:25.769Z,5.37
2023-04-15T00:47:30.016Z,5.37
2023-04-15T00:50:33.718Z,5.70
2023-04-15T00:53:36.367Z,5.03
2023-04-15T00:56:39.798Z,5.87
2023-04-15T00:59:42.627Z,4.90
2023-04-15T01:02:45.759Z,5.07
2023-04-15T01:05:49.417Z,5.27
2023-04-15T01:08:51.766Z,7.15
2023-04-15T01:11:54.639Z,7.07
2023-04-15T01:14:57.367Z,8.18
2023-04-15T01:18:00.404Z,7.75
2023-04-15T01:21:03.885Z,7.87
2023-04-15T01:24:10.417Z,8.27
2023-04-15T01:27:12.725Z,7.80
2023-04-15T01:30:15.614Z,7.72
2023-04-15T01:33:17.955Z,8.48
2023-04-15T01:36:21.371Z,7.83
2023-04-15T01:39:23.707Z,8.30
2023-04-15T01:42:27.750Z,7.97
2023-04-15T01:45:30.312Z,8.15
2023-04-15T01:48:33.487Z,7.57
2023-04-15T01:51:35.814Z,7.30
2023-04-15T01:54:38.433Z,8.25
2023-04-15T01:57:41.234Z,8.25
2023-04-15T02:00:44.066Z,7.97
2023-04-15T02:03:48.037Z,7.40
2023-04-15T02:06:50.862Z,7.67
2023-04-15T02:09:53.427Z,6.62
2023-04-15T02:12:55.776Z,7.10
2023-04-15T02:15:59.738Z,7.68
2023-04-15T02:19:02.592Z,7.18
2023-04-15T02:22:05.375Z,6.70
2023-04-15T02:25:09.112Z,7.30
2023-04-15T02:28:12.369Z,6.80
2023-04-15T02:31:15.113Z,6.78
2023-04-15T02:34:17.513Z,6.85
2023-04-15T02:37:20.562Z,6.37
2023-04-15T02:40:22.929Z,6.78
2023-04-15T02:43:26.236Z,6.68
2023-04-15T02:46:28.588Z,6.97
2023-04-15T02:49:31.283Z,7.57
2023-04-15T02:52:33.620Z,7.00
2023-04-15T02:55:36.406Z,7.18
2023-04-15T02:58:40.698Z,7.68
2023-04-15T03:01:43.792Z,6.90
2023-04-15T03:04:46.491Z,6.78
2023-04-15T03:07:49.252Z,6.83
2023-04-15T03:10:53.097Z,6.93
2023-04-15T03:13:55.767Z,6.47
2023-04-15T03:16:59.549Z,6.72
2023-04-15T03:20:05.079Z,6.37
2023-04-15T03:23:07.631Z,6.77
2023-04-15T03:26:10.368Z,6.90
2023-04-15T03:29:12.726Z,6.37
2023-04-15T03:32:15.897Z,6.18
2023-04-15T03:35:18.241Z,7.65
2023-04-15T03:38:21.082Z,6.97
2023-04-15T03:41:23.638Z,6.22
2023-04-15T03:44:29.279Z,7.40
2023-04-15T03:47:32.181Z,6.75
2023-04-15T03:50:34.844Z,6.87
2023-04-15T03:53:37.125Z,8.13
2023-04-15T03:56:39.813Z,7.25
2023-04-15T03:59:42.114Z,6.50
2023-04-15T04:02:46.219Z,6.78
2023-04-15T04:05:49.002Z,6.47
2023-04-15T04:08:51.290Z,7.27
2023-04-15T04:11:53.885Z,5.68
2023-04-15T04:14:56.389Z,5.40
2023-04-15T04:17:58.990Z,6.80
2023-04-15T04:21:01.573Z,6.50
2023-04-15T04:24:04.621Z,6.57
2023-04-15T04:27:07.143Z,6.45
2023-04-15T04:30:09.952Z,6.62
2023-04-15T04:33:12.424Z,5.87
2023-04-15T04:36:15.023Z,6.45
2023-04-15T04:39:17.318Z,6.30
2023-04-15T04:42:20.067Z,5.72
2023-04-15T04:45:22.752Z,5.82
2023-04-15T04:48:26.021Z,6.43
2023-04-15T04:51:28.382Z,5.12
2023-04-15T04:54:31.619Z,5.80
2023-04-15T04:57:35.897Z,5.60
2023-04-15T05:00:39.014Z,5.47
2023-04-15T05:03:41.894Z,5.10
2023-04-15T05:06:44.832Z,4.68
2023-04-15T05:09:47.482Z,4.77
2023-04-15T05:12:50.545Z,4.30
2023-04-15T05:15:53.409Z,4.25
2023-04-15T05:18:56.189Z,4.70
2023-04-15T05:21:58.473Z,5.05
2023-04-15T05:25:01.143Z,4.33
2023-04-15T05:28:03.549Z,5.32
2023-04-15T05:31:07.368Z,4.97
2023-04-15T05:34:10.401Z,4.95
2023-04-15T05:37:13.117Z,5.30
2023-04-15T05:40:15.486Z,5.10
2023-04-15T05:43:18.117Z,4.90
2023-04-15T05:46:20.581Z,4.65
2023-04-15T05:49:23.297Z,5.75
2023-04-15T05:52:25.703Z,5.97
2023-04-15T05:55:28.371Z,4.87
2023-04-15T05:58:31.434Z,5.80
2023-04-15T06:01:34.402Z,5.70
2023-04-15T06:04:37.214Z,5.50
2023-04-15T06:07:39.650Z,5.87
2023-04-15T06:10:42.333Z,5.70
2023-04-15T06:13:44.662Z,5.87
2023-04-15T06:16:47.357Z,5.95
2023-04-15T06:19:51.793Z,5.87
2023-04-15T06:22:54.575Z,6.20
2023-04-15T06:25:56.878Z,6.17
2023-04-15T06:28:59.686Z,5.75
2023-04-15T06:32:02.204Z,5.30
2023-04-15T06:35:05.616Z,5.00
2023-04-15T06:38:08.005Z,5.25
2023-04-15T06:41:10.785Z,5.23
2023-04-15T06:44:13.143Z,4.90
2023-04-15T06:47:15.959Z,5.32
2023-04-15T06:50:18.695Z,5.07
2023-04-15T06:53:22.113Z,5.20
2023-04-15T06:56:24.436Z,5.03
2023-04-15T06:59:27.433Z,5.10
2023-04-15T07:02:29.898Z,4.65
2023-04-15T07:05:32.615Z,5.37
2023-04-15T07:08:35.028Z,5.15
2023-04-15T07:11:37.691Z,5.50
2023-04-15T07:14:40.169Z,5.80
2023-04-15T07:17:45.549Z,4.90
2023-04-15T07:20:48.331Z,4.55
2023-04-15T07:23:51.191Z,4.93
2023-04-15T07:26:59.476Z,4.70
2023-04-15T07:30:03.773Z,4.90
2023-04-15T07:33:07.137Z,4.28
2023-04-15T07:36:10.779Z,4.45
2023-04-15T07:39:13.595Z,4.60
2023-04-15T07:42:17.084Z,4.73
2023-04-15T07:45:20.153Z,4.68
2023-04-15T07:48:22.848Z,3.45
2023-04-15T07:51:25.724Z,4.82
2023-04-15T07:54:28.379Z,3.60
2023-04-15T07:57:31.004Z,3.37
2023-04-15T08:00:33.675Z,3.10
2023-04-15T08:03:36.626Z,3.45
2023-04-15T08:06:40.154Z,3.42
2023-04-15T08:09:42.968Z,3.40
2023-04-15T08:12:49.134Z,3.23
2023-04-15T08:16:14.284Z,3.60
2023-04-15T08:19:17.234Z,3.20
2023-04-15T08:22:21.304Z,2.80
2023-04-15T08:25:28.017Z,2.95
2023-04-15T08:28:30.910Z,3.10
2023-04-15T08:31:33.419Z,2.62
2023-04-15T08:34:36.387Z,1.80
2023-04-15T08:37:38.701Z,2.35
2023-04-15T08:40:43.447Z,2.50
2023-04-15T08:44:07.660Z,2.13
2023-04-15T08:47:14.746Z,2.35
2023-04-15T08:50:18.057Z,2.35
2023-04-15T08:53:21.633Z,2.80
2023-04-15T08:56:28.228Z,3.10
2023-04-15T08:59:31.516Z,2.80
2023-04-15T09:02:34.001Z,2.35
2023-04-15T09:05:37.620Z,3.55
2023-04-15T09:08:40.467Z,2.75
2023-04-15T09:11:43.293Z,3.03
2023-04-15T09:14:47.284Z,2.70
2023-04-15T09:17:50.127Z,2.25
2023-04-15T09:20:53.651Z,2.00
2023-04-15T09:24:01.661Z,1.60
2023-04-15T09:27:04.428Z,1.60
2023-04-15T09:30:09.307Z,1.60
2023-04-15T09:33:14.760Z,1.42
2023-04-15T09:36:17.520Z,1.62
2023-04-15T09:39:20.188Z,2.10
2023-04-15T09:42:26.982Z,1.75
2023-04-15T09:45:30.221Z,2.50
2023-04-15T09:48:32.865Z,2.25
2023-04-15T09:51:36.056Z,2.85
2023-04-15T09:54:39.320Z,3.20
2023-04-15T09:57:41.933Z,3.50
2023-04-15T10:00:45.321Z,3.47
2023-04-15T10:03:48.484Z,3.25
2023-04-15T10:06:51.365Z,2.40
2023-04-15T10:09:55.182Z,2.75
2023-04-15T10:12:57.587Z,2.47
2023-04-15T10:16:07.841Z,2.13
2023-04-15T10:19:11.260Z,2.08
2023-04-15T10:22:15.064Z,2.40
2023-04-15T10:25:18.395Z,2.17
2023-04-15T10:28:25.203Z,1.62
2023-04-15T10:31:28.556Z,1.00
2023-04-15T10:34:32.321Z,1.20
2023-04-15T10:37:39.204Z,1.20
2023-04-15T10:40:42.318Z,1.17
2023-04-15T10:43:54.504Z,0.80
2023-04-15T10:46:58.629Z,0.97
2023-04-15T10:50:02.609Z,0.80
2023-04-15T10:53:05.753Z,0.90
2023-04-15T10:56:08.630Z,0.90
2023-04-15T10:59:12.895Z,1.55
2023-04-15T11:02:15.621Z,1.70
2023-04-15T11:05:19.562Z,1.58
2023-04-15T11:08:55.642Z,1.60
2023-04-15T11:12:10.869Z,1.30
2023-04-15T11:15:42.298Z,1.62
2023-04-15T11:18:54.816Z,0.90
2023-04-15T11:21:57.502Z,1.00
2023-04-15T11:25:00.072Z,1.00
2023-04-15T11:28:02.888Z,0.73
2023-04-15T11:31:28.627Z,1.00
2023-04-15T11:34:33.705Z,0.93
2023-04-15T11:37:37.162Z,0.68
2023-04-15T11:40:40.311Z,1.12
2023-04-15T11:43:42.937Z,1.15
2023-04-15T11:46:45.684Z,0.95
2023-04-15T11:49:48.621Z,1.10
2023-04-15T11:52:58.978Z,1.02
2023-04-15T11:56:02.008Z,1.10
2023-04-15T11:59:04.459Z,0.80
2023-04-15T12:02:14.175Z,1.00
2023-04-15T12:05:17.259Z,0.90
2023-04-15T12:08:19.741Z,1.17
2023-04-15T12:11:36.279Z,1.10
2023-04-15T12:14:40.146Z,0.90
2023-04-15T12:17:51.990Z,1.00
2023-04-15T12:20:54.695Z,1.43
2023-04-15T12:23:58.215Z,1.62
2023-04-15T12:27:04.321Z,1.25
2023-04-15T12:30:08.116Z,1.45
2023-04-15T12:33:12.534Z,1.60
2023-04-15T12:36:16.618Z,1.43
2023-04-15T12:39:22.612Z,1.30
2023-04-15T12:42:25.286Z,1.30
2023-04-15T12:45:29.463Z,1.02
2023-04-15T12:48:33.327Z,1.67
2023-04-15T12:51:35.766Z,1.10
2023-04-15T12:54:39.615Z,1.30
2023-04-15T12:57:41.888Z,1.60
2023-04-15T13:00:44.851Z,1.10
2023-04-15T13:03:48.156Z,1.33
2023-04-15T13:06:50.916Z,1.17
2023-04-15T13:09:53.224Z,1.42
2023-04-15T13:12:56.845Z,1.58
2023-04-15T13:16:01.504Z,1.37
2023-04-15T13:19:04.346Z,1.33
2023-04-15T13:22:08.368Z,1.30
2023-04-15T13:25:11.711Z,1.60
2023-04-15T13:28:14.109Z,2.00
2023-04-15T13:31:16.951Z,1.40
2023-04-15T13:34:19.692Z,1.50
2023-04-15T13:37:28.013Z,1.33
2023-04-15T13:40:31.412Z,1.75
2023-04-15T13:43:34.368Z,1.55
2023-04-15T13:46:37.853Z,1.40
2023-04-15T13:49:41.149Z,1.45
2023-04-15T13:52:43.574Z,1.17
2023-04-15T13:55:46.298Z,1.70
2023-04-15T13:58:48.685Z,1.90
2023-04-15T14:01:51.402Z,1.60
2023-04-15T14:04:54.097Z,2.20
2023-04-15T14:07:56.488Z,2.50
2023-04-15T14:10:59.352Z,2.50
2023-04-15T14:14:01.658Z,3.20
2023-04-15T14:17:05.461Z,2.70
2023-04-15T14:20:09.434Z,2.65
2023-04-15T14:23:12.077Z,2.07
2023-04-15T14:26:14.774Z,1.48
2023-04-15T14:29:17.970Z,1.80
2023-04-15T14:32:21.295Z,1.77
2023-04-15T14:35:26.562Z,1.87
2023-04-15T14:38:28.975Z,2.10
2023-04-15T14:41:31.580Z,3.00
2023-04-15T14:44:33.921Z,3.92
2023-04-15T14:47:36.644Z,4.12
2023-04-15T14:50:40.005Z,4.45
2023-04-15T14:53:42.633Z,4.10
2023-04-15T14:56:44.957Z,4.28
2023-04-15T14:59:47.634Z,4.10
2023-04-15T15:02:50.019Z,3.33
2023-04-15T15:05:52.918Z,4.00
2023-04-15T15:08:55.371Z,3.00
2023-04-15T15:11:58.305Z,3.55
2023-04-15T15:15:03.035Z,2.70
2023-04-15T15:18:07.864Z,2.17
2023-04-15T15:21:10.907Z,1.80
2023-04-15T15:24:13.589Z,1.40
2023-04-15T15:27:16.065Z,1.10
2023-04-15T15:30:18.799Z,1.20
2023-04-15T15:33:21.380Z,1.40
2023-04-15T15:36:24.459Z,1.55
2023-04-15T15:39:27.658Z,1.60
2023-04-15T15:42:32.359Z,1.45
2023-04-15T15:45:35.605Z,1.95
2023-04-15T15:48:38.272Z,1.83
2023-04-15T15:51:40.605Z,1.95
2023-04-15T15:54:43.736Z,1.50
2023-04-15T15:57:46.497Z,1.87
2023-04-15T16:00:49.483Z,1.95
2023-04-15T16:03:52.329Z,2.17
2023-04-15T16:06:54.833Z,1.80
2023-04-15T16:09:57.753Z,2.20
2023-04-15T16:13:00.265Z,2.20
2023-04-15T16:16:02.832Z,2.28
2023-04-15T16:19:05.851Z,1.90
2023-04-15T16:22:08.908Z,2.25
2023-04-15T16:25:11.374Z,2.20
2023-04-15T16:28:25.768Z,3.15
2023-04-15T16:31:30.040Z,3.00
2023-04-15T16:34:32.683Z,3.05
2023-04-15T16:37:36.222Z,3.33
2023-04-15T16:40:40.255Z,3.10
2023-04-15T16:43:43.689Z,3.60
2023-04-15T16:46:46.395Z,3.12
2023-04-15T16:49:48.735Z,3.83
2023-04-15T16:52:51.369Z,3.40
2023-04-15T16:55:53.923Z,2.67
2023-04-15T16:58:56.842Z,2.90
2023-04-15T17:01:59.545Z,3.28
2023-04-15T17:05:02.272Z,2.97
2023-04-15T17:08:05.775Z,2.70
2023-04-15T17:11:08.433Z,3.13
2023-04-15T17:14:10.963Z,2.87
2023-04-15T17:17:13.668Z,3.30
2023-04-15T17:20:17.477Z,3.17
2023-04-15T17:23:20.077Z,3.30
2023-04-15T17:26:22.407Z,3.40
2023-04-15T17:29:25.145Z,3.33
2023-04-15T17:32:31.840Z,3.70
2023-04-15T17:35:34.731Z,3.65
2023-04-15T17:38:37.138Z,3.65
2023-04-15T17:41:39.757Z,3.77
2023-04-15T17:44:42.138Z,4.00
2023-04-15T17:47:44.848Z,4.28
2023-04-15T17:50:47.531Z,6.20
2023-04-15T17:53:51.114Z,4.78
2023-04-15T17:56:54.031Z,5.80
2023-04-15T17:59:59.789Z,5.40
2023-04-15T18:03:02.366Z,4.90
2023-04-15T18:06:05.430Z,4.95
2023-04-15T18:09:09.100Z,6.22
2023-04-15T18:12:11.762Z,4.97
2023-04-15T18:15:14.607Z,4.43
2023-04-15T18:18:17.308Z,4.45
2023-04-15T18:21:19.722Z,5.20
2023-04-15T18:24:22.655Z,5.18
2023-04-15T18:27:25.001Z,5.00
2023-04-15T18:30:27.647Z,4.43
2023-04-15T18:33:30.002Z,3.87
2023-04-15T18:36:32.845Z,4.53
2023-04-15T18:39:35.316Z,4.32
2023-04-15T18:42:37.991Z,4.20
2023-04-15T18:45:40.561Z,5.30
2023-04-15T18:48:43.294Z,4.55
2023-04-15T18:51:45.664Z,5.60
2023-04-15T18:54:48.284Z,4.75
2023-04-15T18:57:51.414Z,4.70
2023-04-15T19:00:54.499Z,5.25
2023-04-15T19:03:57.323Z,3.65
2023-04-15T19:07:00.183Z,4.00
2023-04-15T19:10:04.452Z,4.30
2023-04-15T19:13:07.475Z,4.50
2023-04-15T19:16:09.813Z,4.50
2023-04-15T19:19:14.702Z,4.82
2023-04-15T19:22:17.195Z,4.37
2023-04-15T19:25:19.975Z,5.68
2023-04-15T19:28:22.349Z,5.37
2023-04-15T19:31:26.118Z,5.15
2023-04-15T19:34:28.522Z,4.75
2023-04-15T19:37:31.389Z,3.62
2023-04-15T19:40:33.892Z,4.45
2023-04-15T19:43:37.114Z,4.10
2023-04-15T19:46:40.415Z,4.57
2023-04-15T19:49:43.468Z,4.53
2023-04-15T19:52:45.956Z,4.47
2023-04-15T19:55:48.959Z,7.47
2023-04-15T19:58:53.115Z,4.60
2023-04-15T20:01:55.859Z,4.20
2023-04-15T20:04:58.574Z,4.78
2023-04-15T20:08:03.039Z,4.28
2023-04-15T20:11:05.837Z,4.65
2023-04-15T20:14:08.329Z,5.50
2023-04-15T20:17:11.176Z,5.30
2023-04-15T20:20:13.575Z,4.68
2023-04-15T20:23:16.270Z,4.37
2023-04-15T20:26:19.668Z,4.95
2023-04-15T20:29:22.419Z,4.60
2023-04-15T20:32:25.055Z,4.43
2023-04-15T20:35:30.926Z,4.70
2023-04-15T20:38:33.360Z,4.70
2023-04-15T20:41:36.068Z,4.37
2023-04-15T20:44:38.654Z,4.43
2023-04-15T20:47:41.626Z,4.68
2023-04-15T20:50:43.994Z,5.00
2023-04-15T20:53:46.719Z,4.72
2023-04-15T20:56:49.358Z,4.82
2023-04-15T20:59:52.156Z,4.30
2023-04-15T21:02:54.660Z,4.70
2023-04-15T21:05:57.409Z,5.25
2023-04-15T21:08:59.819Z,5.60
2023-04-15T21:12:02.587Z,6.10
2023-04-15T21:15:05.989Z,6.70
2023-04-15T21:18:08.625Z,6.95
2023-04-15T21:21:11.197Z,7.65
2023-04-15T21:24:13.841Z,7.18
2023-04-15T21:27:16.175Z,7.05
2023-04-15T21:30:18.853Z,6.57
2023-04-15T21:33:21.316Z,6.97
2023-04-15T21:36:23.943Z,6.50
2023-04-15T21:39:26.423Z,6.30
2023-04-15T21:42:30.006Z,6.37
2023-04-15T21:45:32.488Z,5.73
2023-04-15T21:48:35.440Z,5.97
2023-04-15T21:51:37.772Z,6.35
2023-04-15T21:54:40.362Z,5.97
2023-04-15T21:57:42.667Z,5.90
2023-04-15T22:00:45.471Z,6.07
2023-04-15T22:03:48.374Z,6.37
2023-04-15T22:06:52.245Z,6.00
2023-04-15T22:09:54.944Z,6.10
2023-04-15T22:13:01.480Z,6.57
2023-04-15T22:16:04.150Z,6.93
2023-04-15T22:19:06.699Z,7.15
2023-04-15T22:22:09.857Z,8.00
2023-04-15T22:25:12.542Z,9.00
2023-04-15T22:28:15.347Z,9.85
2023-04-15T22:31:17.681Z,10.00
2023-04-15T22:34:21.619Z,10.25
2023-04-15T22:37:24.298Z,10.30
2023-04-15T22:40:26.948Z,10.80
2023-04-15T22:43:29.318Z,12.10
2023-04-15T22:46:32.027Z,10.50
2023-04-15T22:49:35.208Z,11.15
2023-04-15T22:52:38.087Z,12.32
2023-04-15T22:55:44.048Z,12.00
2023-04-15T22:58:47.126Z,12.23
2023-04-15T23:01:49.707Z,13.13
2023-04-15T23:04:52.561Z,12.75
2023-04-15T23:07:55.020Z,12.27
2023-04-15T23:10:57.634Z,13.07
2023-04-15T23:13:59.966Z,12.07
2023-04-15T23:17:02.634Z,12.47
2023-04-15T23:20:05.742Z,12.48
2023-04-15T23:23:08.362Z,13.38
2023-04-15T23:26:10.653Z,13.38
2023-04-15T23:29:13.263Z,13.15
2023-04-15T23:32:15.562Z,13.93
2023-04-15T23:35:18.194Z,12.75
2023-04-15T23:38:20.572Z,12.30
2023-04-15T23:41:23.188Z,12.65
2023-04-15T23:44:25.591Z,11.88
2023-04-15T23:47:28.299Z,12.17
2023-04-15T23:50:30.757Z,11.70
2023-04-15T23:53:33.618Z,12.55
2023-04-15T23:56:36.479Z,11.35
2023-04-15T23:59:39.115Z,11.07
